Aérodrome :
LOGIN :

S'inscrire | Disclaimer

   EN    FR    IT 

 










Légende :    VFR   VFR Marginal   IFR   IFR Intensif   IFR Très Intensif
Visi : 
Plafond : 
>= 8 km
>= 3000ft
5 à 8 km
1000 à 3000 ft
1500m à 5 km
500 à 1000 ft
800 à 1500m
200 à 500 ft
< 800m
< 200 ft
Symboles :   Orages  Brouillard  Fortes neiges  Fortes précipitations  Vent > 20 kt
SIGMETs :   Divers  Orages  Givrage  Turbulence  Onde Orograph.  Cendres Volcan.







- Altitude de l'aérodrome : 15 ft
- Code IATA : FCO


LIRF - Roma Leonardo da Vinci Fiumicino

DERNIER METAR :
  • 191450Z 26010KT CAVOK 28/20 Q1014 NOSIG

METARs EXPIRÉS :
  • 191350Z 26010KT CAVOK 28/20 Q1014 NOSIG
  • 191320Z 25011KT CAVOK 28/19 Q1014 NOSIG
  • 191250Z 25012KT CAVOK 28/18 Q1014 NOSIG
  • 191220Z 26012KT CAVOK 29/19 Q1014 NOSIG

TAF TAF LIRF
Valide du 19 à 12h jusqu'au 20 à 18h UTC


191100Z 1912/2018 27012KT CAVOK
BECMG 1917/1919 VRB04KT
TEMPO 2001/2005 3000 BR
BECMG 2008/2010 27012KT
Pas de NOTAMs connus pour ce terrain.



MET'MAP, la Météo Aéronautique d'un coup d'oeil ! - Copyright ORBIFLY Décembre 2007 - Disclaimer

ORBIFLY MET'MAP TEAM :

Programmation & Développement : Alexandra Zaïnal
Conception & Développement : Baudouin d'Aumeries
Co-Programmation & Développement : Marc-Olivier Méhu
Soutien technique & logistique : Manuel Goepfert

Contact : metmap@orbifly.com




SOURCES & CREDITS :

   NOAA